sensor_id;sensor_type;location;lat;lon;timestamp;P1;durP1;ratioP1;P2;durP2;ratioP2
49514;SDS011;35415;47.870;16.058;2022-12-18T00:00:47;17.65;;;8.90;;
49514;SDS011;35415;47.870;16.058;2022-12-18T00:03:14;16.90;;;8.25;;
49514;SDS011;35415;47.870;16.058;2022-12-18T00:05:48;21.35;;;9.15;;
49514;SDS011;35415;47.870;16.058;2022-12-18T00:08:16;17.98;;;8.43;;
49514;SDS011;35415;47.870;16.058;2022-12-18T00:10:44;18.65;;;8.45;;
49514;SDS011;35415;47.870;16.058;2022-12-18T00:13:13;14.15;;;7.28;;
49514;SDS011;35415;47.870;16.058;2022-12-18T00:15:41;19.58;;;8.02;;
49514;SDS011;35415;47.870;16.058;2022-12-18T00:18:09;18.55;;;8.10;;
49514;SDS011;35415;47.870;16.058;2022-12-18T00:20:37;21.50;;;7.75;;
49514;SDS011;35415;47.870;16.058;2022-12-18T00:23:05;17.08;;;9.35;;
49514;SDS011;35415;47.870;16.058;2022-12-18T00:25:33;19.63;;;9.02;;
49514;SDS011;35415;47.870;16.058;2022-12-18T00:28:01;17.85;;;8.27;;
49514;SDS011;35415;47.870;16.058;2022-12-18T00:30:28;15.88;;;7.68;;
49514;SDS011;35415;47.870;16.058;2022-12-18T00:32:55;15.68;;;7.75;;
49514;SDS011;35415;47.870;16.058;2022-12-18T00:35:27;15.38;;;7.78;;
49514;SDS011;35415;47.870;16.058;2022-12-18T00:37:54;17.65;;;8.43;;
49514;SDS011;35415;47.870;16.058;2022-12-18T00:40:22;15.57;;;7.43;;
49514;SDS011;35415;47.870;16.058;2022-12-18T00:42:51;17.15;;;8.45;;
49514;SDS011;35415;47.870;16.058;2022-12-18T00:45:23;11.43;;;5.50;;
49514;SDS011;35415;47.870;16.058;2022-12-18T00:47:51;12.98;;;6.88;;
49514;SDS011;35415;47.870;16.058;2022-12-18T00:50:19;20.00;;;7.97;;
49514;SDS011;35415;47.870;16.058;2022-12-18T00:52:48;15.13;;;6.75;;
49514;SDS011;35415;47.870;16.058;2022-12-18T00:55:18;18.17;;;7.75;;
49514;SDS011;35415;47.870;16.058;2022-12-18T00:57:45;17.75;;;7.80;;
49514;SDS011;35415;47.870;16.058;2022-12-18T01:00:13;15.35;;;7.40;;
49514;SDS011;35415;47.870;16.058;2022-12-18T01:02:41;21.08;;;7.57;;
49514;SDS011;35415;47.870;16.058;2022-12-18T01:05:09;16.67;;;7.88;;
49514;SDS011;35415;47.870;16.058;2022-12-18T01:07:38;19.02;;;8.27;;
49514;SDS011;35415;47.870;16.058;2022-12-18T01:10:08;18.98;;;8.35;;
49514;SDS011;35415;47.870;16.058;2022-12-18T01:15:05;14.60;;;7.20;;
49514;SDS011;35415;47.870;16.058;2022-12-18T01:17:35;16.00;;;6.57;;
49514;SDS011;35415;47.870;16.058;2022-12-18T01:20:03;14.88;;;7.65;;
49514;SDS011;35415;47.870;16.058;2022-12-18T01:22:31;13.65;;;6.70;;
49514;SDS011;35415;47.870;16.058;2022-12-18T01:24:58;11.30;;;5.70;;
49514;SDS011;35415;47.870;16.058;2022-12-18T01:27:30;11.50;;;6.65;;
49514;SDS011;35415;47.870;16.058;2022-12-18T01:29:57;11.55;;;5.68;;
49514;SDS011;35415;47.870;16.058;2022-12-18T01:32:25;15.52;;;6.88;;
49514;SDS011;35415;47.870;16.058;2022-12-18T01:34:52;14.38;;;6.35;;
49514;SDS011;35415;47.870;16.058;2022-12-18T01:37:20;16.00;;;7.20;;
49514;SDS011;35415;47.870;16.058;2022-12-18T01:39:47;14.57;;;6.47;;
49514;SDS011;35415;47.870;16.058;2022-12-18T01:42:15;11.70;;;5.85;;
49514;SDS011;35415;47.870;16.058;2022-12-18T01:44:57;14.43;;;7.15;;
49514;SDS011;35415;47.870;16.058;2022-12-18T01:47:28;14.98;;;6.93;;
49514;SDS011;35415;47.870;16.058;2022-12-18T01:50:00;13.20;;;6.20;;
49514;SDS011;35415;47.870;16.058;2022-12-18T01:52:31;13.13;;;6.20;;
49514;SDS011;35415;47.870;16.058;2022-12-18T01:55:00;15.75;;;6.22;;
49514;SDS011;35415;47.870;16.058;2022-12-18T01:57:30;10.60;;;6.10;;
49514;SDS011;35415;47.870;16.058;2022-12-18T02:00:02;12.27;;;5.80;;
49514;SDS011;35415;47.870;16.058;2022-12-18T02:02:31;12.05;;;5.53;;
49514;SDS011;35415;47.870;16.058;2022-12-18T02:04:59;11.07;;;5.32;;
49514;SDS011;35415;47.870;16.058;2022-12-18T02:07:31;11.13;;;5.40;;
49514;SDS011;35415;47.870;16.058;2022-12-18T02:10:13;13.13;;;5.93;;
49514;SDS011;35415;47.870;16.058;2022-12-18T02:12:48;12.43;;;6.03;;
49514;SDS011;35415;47.870;16.058;2022-12-18T02:15:24;13.75;;;5.93;;
49514;SDS011;35415;47.870;16.058;2022-12-18T02:18:00;11.07;;;6.07;;
49514;SDS011;35415;47.870;16.058;2022-12-18T02:20:35;12.18;;;5.95;;
49514;SDS011;35415;47.870;16.058;2022-12-18T02:23:10;14.18;;;5.93;;
49514;SDS011;35415;47.870;16.058;2022-12-18T02:26:04;9.55;;;5.30;;
49514;SDS011;35415;47.870;16.058;2022-12-18T02:28:36;13.68;;;4.90;;
49514;SDS011;35415;47.870;16.058;2022-12-18T02:31:11;8.27;;;3.92;;
49514;SDS011;35415;47.870;16.058;2022-12-18T02:33:43;12.40;;;5.47;;
49514;SDS011;35415;47.870;16.058;2022-12-18T02:36:12;13.98;;;6.20;;
49514;SDS011;35415;47.870;16.058;2022-12-18T02:38:42;13.10;;;6.32;;
49514;SDS011;35415;47.870;16.058;2022-12-18T02:41:12;11.75;;;5.85;;
49514;SDS011;35415;47.870;16.058;2022-12-18T02:43:45;14.05;;;5.88;;
49514;SDS011;35415;47.870;16.058;2022-12-18T02:46:23;14.45;;;6.45;;
49514;SDS011;35415;47.870;16.058;2022-12-18T02:48:57;11.85;;;5.20;;
49514;SDS011;35415;47.870;16.058;2022-12-18T02:51:29;11.23;;;5.47;;
49514;SDS011;35415;47.870;16.058;2022-12-18T02:54:05;9.55;;;5.03;;
49514;SDS011;35415;47.870;16.058;2022-12-18T02:56:40;11.40;;;5.25;;
49514;SDS011;35415;47.870;16.058;2022-12-18T02:59:14;10.40;;;4.75;;
49514;SDS011;35415;47.870;16.058;2022-12-18T03:01:49;10.70;;;4.78;;
49514;SDS011;35415;47.870;16.058;2022-12-18T03:04:22;8.52;;;4.95;;
49514;SDS011;35415;47.870;16.058;2022-12-18T03:06:57;9.48;;;4.95;;
49514;SDS011;35415;47.870;16.058;2022-12-18T03:09:27;10.38;;;4.97;;
49514;SDS011;35415;47.870;16.058;2022-12-18T03:12:00;11.63;;;5.05;;
49514;SDS011;35415;47.870;16.058;2022-12-18T03:14:51;9.25;;;4.43;;
49514;SDS011;35415;47.870;16.058;2022-12-18T03:17:25;8.20;;;3.92;;
49514;SDS011;35415;47.870;16.058;2022-12-18T03:19:55;6.82;;;3.20;;
49514;SDS011;35415;47.870;16.058;2022-12-18T03:22:25;10.27;;;4.38;;
49514;SDS011;35415;47.870;16.058;2022-12-18T03:24:57;12.95;;;5.53;;
49514;SDS011;35415;47.870;16.058;2022-12-18T03:27:28;10.60;;;4.95;;
49514;SDS011;35415;47.870;16.058;2022-12-18T03:30:00;14.52;;;5.70;;
49514;SDS011;35415;47.870;16.058;2022-12-18T03:32:33;7.72;;;3.78;;
49514;SDS011;35415;47.870;16.058;2022-12-18T03:35:06;12.27;;;5.75;;
49514;SDS011;35415;47.870;16.058;2022-12-18T03:37:37;15.10;;;6.00;;
49514;SDS011;35415;47.870;16.058;2022-12-18T03:40:05;11.73;;;5.38;;
49514;SDS011;35415;47.870;16.058;2022-12-18T03:42:39;11.35;;;5.13;;
49514;SDS011;35415;47.870;16.058;2022-12-18T03:45:14;11.05;;;5.00;;
49514;SDS011;35415;47.870;16.058;2022-12-18T03:47:52;10.30;;;4.88;;
49514;SDS011;35415;47.870;16.058;2022-12-18T03:50:27;14.38;;;5.57;;
49514;SDS011;35415;47.870;16.058;2022-12-18T03:53:05;14.25;;;5.60;;
49514;SDS011;35415;47.870;16.058;2022-12-18T03:55:42;11.73;;;5.07;;
49514;SDS011;35415;47.870;16.058;2022-12-18T03:58:12;8.82;;;4.65;;
49514;SDS011;35415;47.870;16.058;2022-12-18T04:00:45;8.70;;;3.97;;
49514;SDS011;35415;47.870;16.058;2022-12-18T04:03:14;11.45;;;4.72;;
49514;SDS011;35415;47.870;16.058;2022-12-18T04:05:46;11.52;;;5.13;;
49514;SDS011;35415;47.870;16.058;2022-12-18T04:08:17;11.10;;;5.35;;
49514;SDS011;35415;47.870;16.058;2022-12-18T04:10:46;11.93;;;4.95;;
49514;SDS011;35415;47.870;16.058;2022-12-18T04:13:22;12.93;;;5.28;;
49514;SDS011;35415;47.870;16.058;2022-12-18T04:15:50;10.90;;;5.47;;
49514;SDS011;35415;47.870;16.058;2022-12-18T04:18:18;12.95;;;5.78;;
49514;SDS011;35415;47.870;16.058;2022-12-18T04:20:46;10.00;;;4.70;;
49514;SDS011;35415;47.870;16.058;2022-12-18T04:23:13;10.35;;;5.10;;
49514;SDS011;35415;47.870;16.058;2022-12-18T04:25:40;12.20;;;5.70;;
49514;SDS011;35415;47.870;16.058;2022-12-18T04:28:07;13.80;;;5.43;;
49514;SDS011;35415;47.870;16.058;2022-12-18T04:30:36;9.15;;;4.60;;
49514;SDS011;35415;47.870;16.058;2022-12-18T04:33:03;11.35;;;4.90;;
49514;SDS011;35415;47.870;16.058;2022-12-18T04:35:30;10.18;;;4.85;;
49514;SDS011;35415;47.870;16.058;2022-12-18T04:37:57;9.75;;;3.92;;
49514;SDS011;35415;47.870;16.058;2022-12-18T04:40:24;12.18;;;4.97;;
49514;SDS011;35415;47.870;16.058;2022-12-18T04:42:52;9.35;;;4.53;;
49514;SDS011;35415;47.870;16.058;2022-12-18T04:45:19;11.10;;;4.38;;
49514;SDS011;35415;47.870;16.058;2022-12-18T04:47:47;8.77;;;4.30;;
49514;SDS011;35415;47.870;16.058;2022-12-18T04:50:15;10.75;;;4.53;;
49514;SDS011;35415;47.870;16.058;2022-12-18T04:52:43;11.73;;;4.28;;
49514;SDS011;35415;47.870;16.058;2022-12-18T04:55:10;10.73;;;4.57;;
49514;SDS011;35415;47.870;16.058;2022-12-18T04:57:37;12.50;;;5.50;;
49514;SDS011;35415;47.870;16.058;2022-12-18T05:00:05;9.13;;;4.95;;
49514;SDS011;35415;47.870;16.058;2022-12-18T05:02:34;12.38;;;5.25;;
49514;SDS011;35415;47.870;16.058;2022-12-18T05:05:04;11.73;;;5.10;;
49514;SDS011;35415;47.870;16.058;2022-12-18T05:07:32;10.20;;;4.80;;
49514;SDS011;35415;47.870;16.058;2022-12-18T05:10:00;10.95;;;5.05;;
49514;SDS011;35415;47.870;16.058;2022-12-18T05:12:27;9.80;;;4.50;;
49514;SDS011;35415;47.870;16.058;2022-12-18T05:14:54;12.60;;;5.32;;
49514;SDS011;35415;47.870;16.058;2022-12-18T05:17:21;12.15;;;4.88;;
49514;SDS011;35415;47.870;16.058;2022-12-18T05:19:49;10.88;;;5.50;;
49514;SDS011;35415;47.870;16.058;2022-12-18T05:22:18;11.65;;;5.65;;
49514;SDS011;35415;47.870;16.058;2022-12-18T05:24:45;11.48;;;4.75;;
49514;SDS011;35415;47.870;16.058;2022-12-18T05:27:13;11.15;;;5.05;;
49514;SDS011;35415;47.870;16.058;2022-12-18T05:29:40;13.15;;;5.25;;
49514;SDS011;35415;47.870;16.058;2022-12-18T05:32:07;11.65;;;5.90;;
49514;SDS011;35415;47.870;16.058;2022-12-18T05:34:35;8.85;;;4.57;;
49514;SDS011;35415;47.870;16.058;2022-12-18T05:37:02;13.05;;;5.75;;
49514;SDS011;35415;47.870;16.058;2022-12-18T05:39:31;9.88;;;4.68;;
49514;SDS011;35415;47.870;16.058;2022-12-18T05:41:58;10.55;;;5.18;;
49514;SDS011;35415;47.870;16.058;2022-12-18T05:44:26;11.57;;;5.05;;
49514;SDS011;35415;47.870;16.058;2022-12-18T05:46:53;12.45;;;4.82;;
49514;SDS011;35415;47.870;16.058;2022-12-18T05:49:21;10.32;;;5.00;;
49514;SDS011;35415;47.870;16.058;2022-12-18T05:51:48;13.60;;;5.55;;
49514;SDS011;35415;47.870;16.058;2022-12-18T05:54:17;11.30;;;5.30;;
49514;SDS011;35415;47.870;16.058;2022-12-18T05:56:46;11.25;;;4.93;;
49514;SDS011;35415;47.870;16.058;2022-12-18T05:59:13;11.43;;;4.75;;
49514;SDS011;35415;47.870;16.058;2022-12-18T06:01:40;13.23;;;6.45;;
49514;SDS011;35415;47.870;16.058;2022-12-18T06:04:08;13.75;;;5.13;;
49514;SDS011;35415;47.870;16.058;2022-12-18T06:06:35;12.38;;;4.60;;
49514;SDS011;35415;47.870;16.058;2022-12-18T06:09:03;12.63;;;4.95;;
49514;SDS011;35415;47.870;16.058;2022-12-18T06:11:34;9.80;;;5.50;;
49514;SDS011;35415;47.870;16.058;2022-12-18T06:14:04;10.85;;;4.78;;
49514;SDS011;35415;47.870;16.058;2022-12-18T06:16:32;7.45;;;3.58;;
49514;SDS011;35415;47.870;16.058;2022-12-18T06:18:59;13.20;;;5.18;;
49514;SDS011;35415;47.870;16.058;2022-12-18T06:21:29;9.07;;;4.72;;
49514;SDS011;35415;47.870;16.058;2022-12-18T06:23:56;11.70;;;6.10;;
49514;SDS011;35415;47.870;16.058;2022-12-18T06:26:24;6.78;;;3.72;;
49514;SDS011;35415;47.870;16.058;2022-12-18T06:28:51;11.00;;;4.90;;
49514;SDS011;35415;47.870;16.058;2022-12-18T06:31:20;9.57;;;4.68;;
49514;SDS011;35415;47.870;16.058;2022-12-18T06:33:47;9.25;;;4.55;;
49514;SDS011;35415;47.870;16.058;2022-12-18T06:36:14;8.93;;;5.13;;
49514;SDS011;35415;47.870;16.058;2022-12-18T06:38:43;12.65;;;4.95;;
49514;SDS011;35415;47.870;16.058;2022-12-18T06:41:11;11.10;;;4.63;;
49514;SDS011;35415;47.870;16.058;2022-12-18T06:43:40;10.77;;;5.13;;
49514;SDS011;35415;47.870;16.058;2022-12-18T06:46:07;13.43;;;5.88;;
49514;SDS011;35415;47.870;16.058;2022-12-18T06:48:37;16.15;;;5.32;;
49514;SDS011;35415;47.870;16.058;2022-12-18T06:51:05;6.47;;;3.60;;
49514;SDS011;35415;47.870;16.058;2022-12-18T06:53:35;11.32;;;4.60;;
49514;SDS011;35415;47.870;16.058;2022-12-18T06:56:03;11.13;;;5.10;;
49514;SDS011;35415;47.870;16.058;2022-12-18T06:58:35;11.55;;;4.80;;
49514;SDS011;35415;47.870;16.058;2022-12-18T07:01:02;12.73;;;5.30;;
49514;SDS011;35415;47.870;16.058;2022-12-18T07:03:31;11.15;;;5.72;;
49514;SDS011;35415;47.870;16.058;2022-12-18T07:06:00;11.80;;;5.40;;
49514;SDS011;35415;47.870;16.058;2022-12-18T07:08:30;7.53;;;4.20;;
49514;SDS011;35415;47.870;16.058;2022-12-18T07:10:58;10.65;;;4.97;;
49514;SDS011;35415;47.870;16.058;2022-12-18T07:13:25;10.13;;;4.25;;
49514;SDS011;35415;47.870;16.058;2022-12-18T07:15:53;6.65;;;3.53;;
49514;SDS011;35415;47.870;16.058;2022-12-18T07:18:20;11.02;;;4.70;;
49514;SDS011;35415;47.870;16.058;2022-12-18T07:20:47;12.13;;;5.63;;
49514;SDS011;35415;47.870;16.058;2022-12-18T07:23:17;11.02;;;4.82;;
49514;SDS011;35415;47.870;16.058;2022-12-18T07:25:45;10.77;;;4.65;;
49514;SDS011;35415;47.870;16.058;2022-12-18T07:28:12;12.65;;;5.25;;
49514;SDS011;35415;47.870;16.058;2022-12-18T07:30:40;14.43;;;6.00;;
49514;SDS011;35415;47.870;16.058;2022-12-18T07:33:07;7.78;;;4.65;;
49514;SDS011;35415;47.870;16.058;2022-12-18T07:35:36;18.60;;;7.28;;
49514;SDS011;35415;47.870;16.058;2022-12-18T07:38:04;10.18;;;5.22;;
49514;SDS011;35415;47.870;16.058;2022-12-18T07:40:32;10.82;;;5.43;;
49514;SDS011;35415;47.870;16.058;2022-12-18T07:43:00;13.40;;;5.10;;
49514;SDS011;35415;47.870;16.058;2022-12-18T07:45:27;19.27;;;7.90;;
49514;SDS011;35415;47.870;16.058;2022-12-18T07:47:58;9.73;;;4.70;;
49514;SDS011;35415;47.870;16.058;2022-12-18T07:50:25;15.75;;;6.63;;
49514;SDS011;35415;47.870;16.058;2022-12-18T07:52:53;13.73;;;6.13;;
49514;SDS011;35415;47.870;16.058;2022-12-18T07:55:20;14.40;;;6.20;;
49514;SDS011;35415;47.870;16.058;2022-12-18T07:57:49;11.68;;;4.70;;
49514;SDS011;35415;47.870;16.058;2022-12-18T08:00:16;10.95;;;4.68;;
49514;SDS011;35415;47.870;16.058;2022-12-18T08:02:44;12.65;;;5.78;;
49514;SDS011;35415;47.870;16.058;2022-12-18T08:05:11;13.77;;;5.55;;
49514;SDS011;35415;47.870;16.058;2022-12-18T08:07:40;11.27;;;5.90;;
49514;SDS011;35415;47.870;16.058;2022-12-18T08:10:07;9.88;;;4.55;;
49514;SDS011;35415;47.870;16.058;2022-12-18T08:12:35;8.23;;;4.47;;
49514;SDS011;35415;47.870;16.058;2022-12-18T08:15:04;13.57;;;5.50;;
49514;SDS011;35415;47.870;16.058;2022-12-18T08:17:33;15.85;;;6.28;;
49514;SDS011;35415;47.870;16.058;2022-12-18T08:20:00;13.70;;;5.63;;
49514;SDS011;35415;47.870;16.058;2022-12-18T08:22:30;15.10;;;5.60;;
49514;SDS011;35415;47.870;16.058;2022-12-18T08:24:57;14.20;;;5.70;;
49514;SDS011;35415;47.870;16.058;2022-12-18T08:27:25;9.85;;;4.78;;
49514;SDS011;35415;47.870;16.058;2022-12-18T08:29:52;9.25;;;5.30;;
49514;SDS011;35415;47.870;16.058;2022-12-18T08:32:21;13.60;;;4.95;;
49514;SDS011;35415;47.870;16.058;2022-12-18T08:34:48;12.38;;;6.18;;
49514;SDS011;35415;47.870;16.058;2022-12-18T08:37:15;12.90;;;6.70;;
49514;SDS011;35415;47.870;16.058;2022-12-18T08:39:42;11.45;;;6.07;;
49514;SDS011;35415;47.870;16.058;2022-12-18T08:42:10;11.73;;;6.00;;
49514;SDS011;35415;47.870;16.058;2022-12-18T08:44:54;14.15;;;7.20;;
49514;SDS011;35415;47.870;16.058;2022-12-18T08:47:23;12.13;;;6.80;;
49514;SDS011;35415;47.870;16.058;2022-12-18T08:49:51;16.65;;;7.55;;
49514;SDS011;35415;47.870;16.058;2022-12-18T08:52:18;17.40;;;6.38;;
49514;SDS011;35415;47.870;16.058;2022-12-18T08:54:45;14.70;;;7.50;;
49514;SDS011;35415;47.870;16.058;2022-12-18T08:57:12;13.20;;;6.45;;
49514;SDS011;35415;47.870;16.058;2022-12-18T08:59:39;12.07;;;5.88;;
49514;SDS011;35415;47.870;16.058;2022-12-18T09:02:08;11.25;;;5.85;;
49514;SDS011;35415;47.870;16.058;2022-12-18T09:04:51;10.32;;;5.68;;
49514;SDS011;35415;47.870;16.058;2022-12-18T09:07:21;14.48;;;5.78;;
49514;SDS011;35415;47.870;16.058;2022-12-18T09:09:49;12.35;;;5.50;;
49514;SDS011;35415;47.870;16.058;2022-12-18T09:12:16;11.70;;;5.60;;
49514;SDS011;35415;47.870;16.058;2022-12-18T09:14:43;12.25;;;5.97;;
49514;SDS011;35415;47.870;16.058;2022-12-18T09:17:11;11.68;;;5.65;;
49514;SDS011;35415;47.870;16.058;2022-12-18T09:19:38;16.17;;;6.18;;
49514;SDS011;35415;47.870;16.058;2022-12-18T09:22:07;11.05;;;5.68;;
49514;SDS011;35415;47.870;16.058;2022-12-18T09:24:35;14.40;;;5.75;;
49514;SDS011;35415;47.870;16.058;2022-12-18T09:27:02;12.57;;;5.80;;
49514;SDS011;35415;47.870;16.058;2022-12-18T09:29:29;25.70;;;9.25;;
49514;SDS011;35415;47.870;16.058;2022-12-18T09:31:57;18.08;;;7.97;;
49514;SDS011;35415;47.870;16.058;2022-12-18T09:34:24;18.30;;;8.00;;
49514;SDS011;35415;47.870;16.058;2022-12-18T09:36:52;13.48;;;6.82;;
49514;SDS011;35415;47.870;16.058;2022-12-18T09:39:21;14.85;;;6.82;;
49514;SDS011;35415;47.870;16.058;2022-12-18T09:41:50;18.98;;;8.55;;
49514;SDS011;35415;47.870;16.058;2022-12-18T09:44:22;18.70;;;8.93;;
49514;SDS011;35415;47.870;16.058;2022-12-18T09:46:53;18.30;;;7.20;;
49514;SDS011;35415;47.870;16.058;2022-12-18T09:49:30;20.23;;;9.65;;
49514;SDS011;35415;47.870;16.058;2022-12-18T09:52:05;26.73;;;8.93;;
49514;SDS011;35415;47.870;16.058;2022-12-18T09:54:52;19.60;;;7.78;;
49514;SDS011;35415;47.870;16.058;2022-12-18T09:57:29;18.77;;;9.35;;
49514;SDS011;35415;47.870;16.058;2022-12-18T10:00:03;17.63;;;7.82;;
49514;SDS011;35415;47.870;16.058;2022-12-18T10:02:42;17.17;;;8.07;;
49514;SDS011;35415;47.870;16.058;2022-12-18T10:05:11;24.92;;;12.90;;
49514;SDS011;35415;47.870;16.058;2022-12-18T10:07:43;62.17;;;30.23;;
49514;SDS011;35415;47.870;16.058;2022-12-18T10:10:33;31.70;;;14.68;;
49514;SDS011;35415;47.870;16.058;2022-12-18T10:13:12;29.30;;;13.43;;
49514;SDS011;35415;47.870;16.058;2022-12-18T10:15:51;24.40;;;11.85;;
49514;SDS011;35415;47.870;16.058;2022-12-18T10:18:28;27.17;;;12.15;;
49514;SDS011;35415;47.870;16.058;2022-12-18T10:21:06;37.15;;;17.90;;
49514;SDS011;35415;47.870;16.058;2022-12-18T10:26:11;28.58;;;13.65;;
49514;SDS011;35415;47.870;16.058;2022-12-18T10:28:39;28.83;;;14.15;;
49514;SDS011;35415;47.870;16.058;2022-12-18T10:31:12;22.90;;;10.60;;
49514;SDS011;35415;47.870;16.058;2022-12-18T10:33:42;29.38;;;13.40;;
49514;SDS011;35415;47.870;16.058;2022-12-18T10:36:10;23.75;;;11.48;;
49514;SDS011;35415;47.870;16.058;2022-12-18T10:38:40;26.00;;;12.15;;
49514;SDS011;35415;47.870;16.058;2022-12-18T10:41:22;34.10;;;16.23;;
49514;SDS011;35415;47.870;16.058;2022-12-18T10:46:39;22.50;;;12.63;;
49514;SDS011;35415;47.870;16.058;2022-12-18T10:49:18;20.33;;;10.98;;
49514;SDS011;35415;47.870;16.058;2022-12-18T10:51:47;24.63;;;13.77;;
49514;SDS011;35415;47.870;16.058;2022-12-18T10:54:16;22.25;;;11.60;;
49514;SDS011;35415;47.870;16.058;2022-12-18T10:56:48;23.77;;;12.52;;
49514;SDS011;35415;47.870;16.058;2022-12-18T10:59:17;24.52;;;12.10;;
49514;SDS011;35415;47.870;16.058;2022-12-18T11:01:46;27.67;;;12.90;;
49514;SDS011;35415;47.870;16.058;2022-12-18T11:04:18;31.52;;;14.52;;
49514;SDS011;35415;47.870;16.058;2022-12-18T11:06:55;23.73;;;13.27;;
49514;SDS011;35415;47.870;16.058;2022-12-18T11:09:25;21.95;;;11.50;;
49514;SDS011;35415;47.870;16.058;2022-12-18T11:11:55;27.77;;;12.57;;
49514;SDS011;35415;47.870;16.058;2022-12-18T11:14:28;27.58;;;14.70;;
49514;SDS011;35415;47.870;16.058;2022-12-18T11:19:30;29.23;;;15.32;;
49514;SDS011;35415;47.870;16.058;2022-12-18T11:22:01;28.13;;;14.80;;
49514;SDS011;35415;47.870;16.058;2022-12-18T11:24:49;22.38;;;12.98;;
49514;SDS011;35415;47.870;16.058;2022-12-18T11:27:22;26.33;;;14.73;;
49514;SDS011;35415;47.870;16.058;2022-12-18T11:29:50;23.58;;;13.02;;
49514;SDS011;35415;47.870;16.058;2022-12-18T11:35:13;27.30;;;12.98;;
49514;SDS011;35415;47.870;16.058;2022-12-18T11:37:48;23.60;;;11.25;;
49514;SDS011;35415;47.870;16.058;2022-12-18T11:40:25;26.95;;;14.95;;
49514;SDS011;35415;47.870;16.058;2022-12-18T11:42:59;21.67;;;11.90;;
49514;SDS011;35415;47.870;16.058;2022-12-18T11:45:33;23.73;;;13.90;;
49514;SDS011;35415;47.870;16.058;2022-12-18T11:48:04;26.85;;;15.30;;
49514;SDS011;35415;47.870;16.058;2022-12-18T11:50:44;27.40;;;14.93;;
49514;SDS011;35415;47.870;16.058;2022-12-18T11:53:15;25.30;;;13.63;;
49514;SDS011;35415;47.870;16.058;2022-12-18T11:55:55;24.92;;;12.98;;
49514;SDS011;35415;47.870;16.058;2022-12-18T11:58:37;33.10;;;16.88;;
49514;SDS011;35415;47.870;16.058;2022-12-18T12:01:13;28.15;;;13.70;;
49514;SDS011;35415;47.870;16.058;2022-12-18T12:03:56;22.83;;;12.95;;
49514;SDS011;35415;47.870;16.058;2022-12-18T12:06:45;26.33;;;12.82;;
49514;SDS011;35415;47.870;16.058;2022-12-18T12:09:23;28.83;;;16.30;;
49514;SDS011;35415;47.870;16.058;2022-12-18T12:11:59;23.85;;;12.48;;
49514;SDS011;35415;47.870;16.058;2022-12-18T12:14:45;27.40;;;15.85;;
49514;SDS011;35415;47.870;16.058;2022-12-18T12:17:21;29.10;;;15.32;;
49514;SDS011;35415;47.870;16.058;2022-12-18T12:19:56;30.85;;;16.60;;
49514;SDS011;35415;47.870;16.058;2022-12-18T12:22:31;30.27;;;16.95;;
49514;SDS011;35415;47.870;16.058;2022-12-18T12:25:11;29.55;;;12.07;;
49514;SDS011;35415;47.870;16.058;2022-12-18T12:27:49;27.25;;;13.95;;
49514;SDS011;35415;47.870;16.058;2022-12-18T12:30:29;31.55;;;16.00;;
49514;SDS011;35415;47.870;16.058;2022-12-18T12:33:11;39.17;;;20.50;;
49514;SDS011;35415;47.870;16.058;2022-12-18T12:35:52;28.75;;;13.85;;
49514;SDS011;35415;47.870;16.058;2022-12-18T12:38:26;28.00;;;11.60;;
49514;SDS011;35415;47.870;16.058;2022-12-18T12:41:01;22.40;;;10.73;;
49514;SDS011;35415;47.870;16.058;2022-12-18T12:43:32;48.17;;;18.70;;
49514;SDS011;35415;47.870;16.058;2022-12-18T12:46:06;63.58;;;24.70;;
49514;SDS011;35415;47.870;16.058;2022-12-18T12:48:46;53.85;;;21.70;;
49514;SDS011;35415;47.870;16.058;2022-12-18T12:51:19;42.55;;;19.60;;
49514;SDS011;35415;47.870;16.058;2022-12-18T12:53:54;32.97;;;17.92;;
49514;SDS011;35415;47.870;16.058;2022-12-18T12:56:36;24.50;;;13.30;;
49514;SDS011;35415;47.870;16.058;2022-12-18T12:59:12;23.52;;;12.63;;
49514;SDS011;35415;47.870;16.058;2022-12-18T13:01:50;26.58;;;13.65;;
49514;SDS011;35415;47.870;16.058;2022-12-18T13:04:28;27.35;;;13.85;;
49514;SDS011;35415;47.870;16.058;2022-12-18T13:07:04;31.52;;;16.75;;
49514;SDS011;35415;47.870;16.058;2022-12-18T13:12:53;27.42;;;13.85;;
49514;SDS011;35415;47.870;16.058;2022-12-18T13:15:23;26.52;;;13.75;;
49514;SDS011;35415;47.870;16.058;2022-12-18T13:18:13;27.73;;;13.70;;
49514;SDS011;35415;47.870;16.058;2022-12-18T13:20:49;26.55;;;14.18;;
49514;SDS011;35415;47.870;16.058;2022-12-18T13:23:36;28.10;;;14.75;;
49514;SDS011;35415;47.870;16.058;2022-12-18T13:29:01;56.13;;;25.83;;
49514;SDS011;35415;47.870;16.058;2022-12-18T13:34:37;65.07;;;27.77;;
49514;SDS011;35415;47.870;16.058;2022-12-18T13:43:36;34.75;;;16.60;;
49514;SDS011;35415;47.870;16.058;2022-12-18T13:46:18;31.63;;;16.08;;
49514;SDS011;35415;47.870;16.058;2022-12-18T13:48:52;34.15;;;16.65;;
49514;SDS011;35415;47.870;16.058;2022-12-18T13:51:26;29.38;;;15.43;;
49514;SDS011;35415;47.870;16.058;2022-12-18T13:53:58;32.67;;;16.73;;
49514;SDS011;35415;47.870;16.058;2022-12-18T13:56:27;32.90;;;16.60;;
49514;SDS011;35415;47.870;16.058;2022-12-18T13:59:08;32.20;;;16.23;;
49514;SDS011;35415;47.870;16.058;2022-12-18T14:01:45;35.03;;;16.10;;
49514;SDS011;35415;47.870;16.058;2022-12-18T14:04:19;34.95;;;18.42;;
49514;SDS011;35415;47.870;16.058;2022-12-18T14:07:13;34.28;;;17.33;;
49514;SDS011;35415;47.870;16.058;2022-12-18T14:09:45;37.85;;;18.63;;
49514;SDS011;35415;47.870;16.058;2022-12-18T14:12:16;33.92;;;15.45;;
49514;SDS011;35415;47.870;16.058;2022-12-18T14:15:05;29.25;;;15.13;;
49514;SDS011;35415;47.870;16.058;2022-12-18T14:17:42;33.63;;;15.75;;
49514;SDS011;35415;47.870;16.058;2022-12-18T14:20:12;36.90;;;15.95;;
49514;SDS011;35415;47.870;16.058;2022-12-18T14:22:44;34.50;;;17.00;;
49514;SDS011;35415;47.870;16.058;2022-12-18T14:25:19;28.85;;;13.35;;
49514;SDS011;35415;47.870;16.058;2022-12-18T14:27:50;47.97;;;21.23;;
49514;SDS011;35415;47.870;16.058;2022-12-18T14:30:25;35.80;;;17.52;;
49514;SDS011;35415;47.870;16.058;2022-12-18T14:33:04;36.45;;;17.25;;
49514;SDS011;35415;47.870;16.058;2022-12-18T14:35:32;32.63;;;17.08;;
49514;SDS011;35415;47.870;16.058;2022-12-18T14:40:58;40.38;;;16.30;;
49514;SDS011;35415;47.870;16.058;2022-12-18T14:43:31;37.58;;;18.05;;
49514;SDS011;35415;47.870;16.058;2022-12-18T14:46:02;37.35;;;17.05;;
49514;SDS011;35415;47.870;16.058;2022-12-18T14:48:36;36.35;;;17.13;;
49514;SDS011;35415;47.870;16.058;2022-12-18T14:51:18;49.78;;;21.88;;
49514;SDS011;35415;47.870;16.058;2022-12-18T14:53:52;62.10;;;28.27;;
49514;SDS011;35415;47.870;16.058;2022-12-18T14:56:22;45.85;;;22.35;;
49514;SDS011;35415;47.870;16.058;2022-12-18T14:58:58;50.42;;;23.13;;
49514;SDS011;35415;47.870;16.058;2022-12-18T15:01:28;46.95;;;21.30;;
49514;SDS011;35415;47.870;16.058;2022-12-18T15:03:57;39.80;;;19.42;;
49514;SDS011;35415;47.870;16.058;2022-12-18T15:06:30;41.97;;;20.15;;
49514;SDS011;35415;47.870;16.058;2022-12-18T15:09:02;46.95;;;20.92;;
49514;SDS011;35415;47.870;16.058;2022-12-18T15:11:35;40.33;;;18.58;;
49514;SDS011;35415;47.870;16.058;2022-12-18T15:14:28;39.22;;;18.65;;